sensor_id;sensor_type;location;lat;lon;timestamp;P1;durP1;ratioP1;P2;durP2;ratioP2
23082;SDS011;11709;52.420;10.538;2022-08-01T00:03:47;9.53;;;6.70;;
23082;SDS011;11709;52.420;10.538;2022-08-01T00:07:49;8.23;;;6.90;;
23082;SDS011;11709;52.420;10.538;2022-08-01T00:11:52;9.88;;;7.28;;
23082;SDS011;11709;52.420;10.538;2022-08-01T00:15:54;11.18;;;7.85;;
23082;SDS011;11709;52.420;10.538;2022-08-01T00:19:57;9.18;;;6.92;;
23082;SDS011;11709;52.420;10.538;2022-08-01T00:23:59;11.63;;;7.42;;
23082;SDS011;11709;52.420;10.538;2022-08-01T00:28:02;10.98;;;6.95;;
23082;SDS011;11709;52.420;10.538;2022-08-01T00:32:04;7.60;;;6.78;;
23082;SDS011;11709;52.420;10.538;2022-08-01T00:36:07;8.68;;;6.92;;
23082;SDS011;11709;52.420;10.538;2022-08-01T00:40:10;10.25;;;7.20;;
23082;SDS011;11709;52.420;10.538;2022-08-01T00:44:13;9.88;;;6.75;;
23082;SDS011;11709;52.420;10.538;2022-08-01T00:48:15;11.08;;;6.65;;
23082;SDS011;11709;52.420;10.538;2022-08-01T00:52:18;8.25;;;6.85;;
23082;SDS011;11709;52.420;10.538;2022-08-01T00:56:21;10.78;;;7.12;;
23082;SDS011;11709;52.420;10.538;2022-08-01T01:00:26;8.95;;;7.08;;
23082;SDS011;11709;52.420;10.538;2022-08-01T01:04:28;9.08;;;7.35;;
23082;SDS011;11709;52.420;10.538;2022-08-01T01:08:46;11.20;;;8.38;;
23082;SDS011;11709;52.420;10.538;2022-08-01T01:13:06;10.75;;;8.60;;
23082;SDS011;11709;52.420;10.538;2022-08-01T01:17:10;13.32;;;9.58;;
23082;SDS011;11709;52.420;10.538;2022-08-01T01:29:50;10.88;;;8.25;;
23082;SDS011;11709;52.420;10.538;2022-08-01T01:33:54;9.23;;;7.97;;
23082;SDS011;11709;52.420;10.538;2022-08-01T01:38:07;7.87;;;6.75;;
23082;SDS011;11709;52.420;10.538;2022-08-01T01:42:11;8.80;;;6.35;;
23082;SDS011;11709;52.420;10.538;2022-08-01T01:46:15;8.30;;;6.70;;
23082;SDS011;11709;52.420;10.538;2022-08-01T01:50:22;8.53;;;6.60;;
23082;SDS011;11709;52.420;10.538;2022-08-01T01:54:31;10.82;;;7.05;;
23082;SDS011;11709;52.420;10.538;2022-08-01T01:58:31;9.40;;;6.37;;
23082;SDS011;11709;52.420;10.538;2022-08-01T02:02:39;10.45;;;7.30;;
23082;SDS011;11709;52.420;10.538;2022-08-01T02:06:44;9.90;;;7.30;;
23082;SDS011;11709;52.420;10.538;2022-08-01T02:10:48;9.15;;;7.60;;
23082;SDS011;11709;52.420;10.538;2022-08-01T02:15:12;10.35;;;6.97;;
23082;SDS011;11709;52.420;10.538;2022-08-01T02:19:17;10.82;;;8.00;;
23082;SDS011;11709;52.420;10.538;2022-08-01T02:23:21;9.18;;;7.60;;
23082;SDS011;11709;52.420;10.538;2022-08-01T02:27:28;11.75;;;8.18;;
23082;SDS011;11709;52.420;10.538;2022-08-01T02:31:35;10.50;;;8.85;;
23082;SDS011;11709;52.420;10.538;2022-08-01T02:35:40;10.35;;;8.78;;
23082;SDS011;11709;52.420;10.538;2022-08-01T02:39:50;14.53;;;9.50;;
23082;SDS011;11709;52.420;10.538;2022-08-01T02:43:56;13.65;;;10.15;;
23082;SDS011;11709;52.420;10.538;2022-08-01T02:48:01;11.97;;;10.10;;
23082;SDS011;11709;52.420;10.538;2022-08-01T02:52:06;14.07;;;9.50;;
23082;SDS011;11709;52.420;10.538;2022-08-01T02:56:12;11.83;;;9.93;;
23082;SDS011;11709;52.420;10.538;2022-08-01T03:00:16;14.63;;;10.20;;
23082;SDS011;11709;52.420;10.538;2022-08-01T03:04:19;13.18;;;9.48;;
23082;SDS011;11709;52.420;10.538;2022-08-01T03:08:24;12.45;;;9.00;;
23082;SDS011;11709;52.420;10.538;2022-08-01T03:12:29;11.30;;;8.03;;
23082;SDS011;11709;52.420;10.538;2022-08-01T03:16:35;9.20;;;7.53;;
23082;SDS011;11709;52.420;10.538;2022-08-01T03:20:40;7.70;;;6.67;;
23082;SDS011;11709;52.420;10.538;2022-08-01T03:24:46;7.33;;;6.20;;
23082;SDS011;11709;52.420;10.538;2022-08-01T03:28:50;8.03;;;5.67;;
23082;SDS011;11709;52.420;10.538;2022-08-01T03:32:54;6.25;;;5.60;;
23082;SDS011;11709;52.420;10.538;2022-08-01T03:37:11;8.15;;;5.10;;
23082;SDS011;11709;52.420;10.538;2022-08-01T03:41:22;7.03;;;5.08;;
23082;SDS011;11709;52.420;10.538;2022-08-01T03:45:23;7.03;;;5.33;;
23082;SDS011;11709;52.420;10.538;2022-08-01T03:49:38;7.67;;;4.35;;
23082;SDS011;11709;52.420;10.538;2022-08-01T03:53:37;7.75;;;4.15;;
23082;SDS011;11709;52.420;10.538;2022-08-01T03:57:42;6.78;;;4.75;;
23082;SDS011;11709;52.420;10.538;2022-08-01T04:01:46;6.65;;;4.60;;
23082;SDS011;11709;52.420;10.538;2022-08-01T04:05:49;5.72;;;4.90;;
23082;SDS011;11709;52.420;10.538;2022-08-01T04:09:51;4.67;;;4.10;;
23082;SDS011;11709;52.420;10.538;2022-08-01T04:13:54;5.60;;;4.97;;
23082;SDS011;11709;52.420;10.538;2022-08-01T04:17:58;6.17;;;5.42;;
23082;SDS011;11709;52.420;10.538;2022-08-01T04:22:00;6.08;;;5.25;;
23082;SDS011;11709;52.420;10.538;2022-08-01T04:26:03;9.65;;;5.83;;
23082;SDS011;11709;52.420;10.538;2022-08-01T04:30:07;9.15;;;6.45;;
23082;SDS011;11709;52.420;10.538;2022-08-01T04:34:10;7.53;;;6.08;;
23082;SDS011;11709;52.420;10.538;2022-08-01T04:38:22;9.83;;;7.17;;
23082;SDS011;11709;52.420;10.538;2022-08-01T04:42:22;11.97;;;7.25;;
23082;SDS011;11709;52.420;10.538;2022-08-01T04:46:24;9.83;;;7.62;;
23082;SDS011;11709;52.420;10.538;2022-08-01T04:50:29;9.18;;;7.12;;
23082;SDS011;11709;52.420;10.538;2022-08-01T04:54:35;10.00;;;7.25;;
23082;SDS011;11709;52.420;10.538;2022-08-01T04:58:38;10.45;;;7.37;;
23082;SDS011;11709;52.420;10.538;2022-08-01T05:02:42;10.45;;;7.80;;
23082;SDS011;11709;52.420;10.538;2022-08-01T05:06:44;10.75;;;7.42;;
23082;SDS011;11709;52.420;10.538;2022-08-01T05:10:47;8.83;;;7.58;;
23082;SDS011;11709;52.420;10.538;2022-08-01T05:14:49;11.83;;;8.08;;
23082;SDS011;11709;52.420;10.538;2022-08-01T05:18:52;8.50;;;7.42;;
23082;SDS011;11709;52.420;10.538;2022-08-01T05:22:54;9.98;;;7.67;;
23082;SDS011;11709;52.420;10.538;2022-08-01T05:26:58;9.40;;;7.95;;
23082;SDS011;11709;52.420;10.538;2022-08-01T05:31:00;9.23;;;7.72;;
23082;SDS011;11709;52.420;10.538;2022-08-01T05:35:03;11.40;;;8.50;;
23082;SDS011;11709;52.420;10.538;2022-08-01T05:39:07;10.72;;;8.33;;
23082;SDS011;11709;52.420;10.538;2022-08-01T05:43:09;12.07;;;8.40;;
23082;SDS011;11709;52.420;10.538;2022-08-01T05:47:12;9.40;;;8.00;;
23082;SDS011;11709;52.420;10.538;2022-08-01T05:51:15;12.18;;;9.35;;
23082;SDS011;11709;52.420;10.538;2022-08-01T05:55:17;14.38;;;10.08;;
23082;SDS011;11709;52.420;10.538;2022-08-01T05:59:20;13.10;;;9.80;;
23082;SDS011;11709;52.420;10.538;2022-08-01T06:03:22;13.25;;;9.63;;
23082;SDS011;11709;52.420;10.538;2022-08-01T06:07:25;3.60;;;3.15;;
23082;SDS011;11709;52.420;10.538;2022-08-01T06:11:27;3.15;;;2.60;;
23082;SDS011;11709;52.420;10.538;2022-08-01T06:15:30;3.00;;;2.22;;
23082;SDS011;11709;52.420;10.538;2022-08-01T06:19:34;3.12;;;2.60;;
23082;SDS011;11709;52.420;10.538;2022-08-01T06:23:36;2.83;;;2.62;;
23082;SDS011;11709;52.420;10.538;2022-08-01T06:27:39;2.90;;;2.60;;
23082;SDS011;11709;52.420;10.538;2022-08-01T06:31:41;4.05;;;2.87;;
23082;SDS011;11709;52.420;10.538;2022-08-01T06:35:44;3.72;;;3.22;;
23082;SDS011;11709;52.420;10.538;2022-08-01T06:39:46;3.95;;;3.17;;
23082;SDS011;11709;52.420;10.538;2022-08-01T06:43:50;3.50;;;2.95;;
23082;SDS011;11709;52.420;10.538;2022-08-01T06:47:52;2.35;;;2.15;;
23082;SDS011;11709;52.420;10.538;2022-08-01T06:51:55;2.33;;;1.70;;
23082;SDS011;11709;52.420;10.538;2022-08-01T06:55:57;4.53;;;1.75;;
23082;SDS011;11709;52.420;10.538;2022-08-01T07:00:06;3.05;;;2.02;;
23082;SDS011;11709;52.420;10.538;2022-08-01T07:04:11;2.65;;;1.95;;
23082;SDS011;11709;52.420;10.538;2022-08-01T07:08:13;1.90;;;1.45;;
23082;SDS011;11709;52.420;10.538;2022-08-01T07:12:16;1.70;;;1.55;;
23082;SDS011;11709;52.420;10.538;2022-08-01T07:16:18;2.22;;;1.57;;
23082;SDS011;11709;52.420;10.538;2022-08-01T07:20:21;3.22;;;1.80;;
23082;SDS011;11709;52.420;10.538;2022-08-01T07:24:23;2.00;;;1.67;;
23082;SDS011;11709;52.420;10.538;2022-08-01T07:28:26;4.78;;;2.10;;
23082;SDS011;11709;52.420;10.538;2022-08-01T07:32:29;3.62;;;2.00;;
23082;SDS011;11709;52.420;10.538;2022-08-01T07:36:31;4.22;;;2.70;;
23082;SDS011;11709;52.420;10.538;2022-08-01T07:40:34;3.10;;;2.12;;
23082;SDS011;11709;52.420;10.538;2022-08-01T07:44:36;3.85;;;2.30;;
23082;SDS011;11709;52.420;10.538;2022-08-01T07:48:39;2.40;;;2.20;;
23082;SDS011;11709;52.420;10.538;2022-08-01T07:52:42;3.27;;;2.08;;
23082;SDS011;11709;52.420;10.538;2022-08-01T07:56:44;1.90;;;1.80;;
23082;SDS011;11709;52.420;10.538;2022-08-01T08:00:47;3.77;;;2.27;;
23082;SDS011;11709;52.420;10.538;2022-08-01T08:04:49;2.70;;;1.90;;
23082;SDS011;11709;52.420;10.538;2022-08-01T08:08:52;2.08;;;1.90;;
23082;SDS011;11709;52.420;10.538;2022-08-01T08:12:54;5.97;;;2.25;;
23082;SDS011;11709;52.420;10.538;2022-08-01T08:16:57;2.60;;;2.05;;
23082;SDS011;11709;52.420;10.538;2022-08-01T08:20:59;2.47;;;2.27;;
23082;SDS011;11709;52.420;10.538;2022-08-01T08:25:02;3.75;;;2.05;;
23082;SDS011;11709;52.420;10.538;2022-08-01T08:29:05;2.20;;;2.00;;
23082;SDS011;11709;52.420;10.538;2022-08-01T08:33:07;1.90;;;1.80;;
23082;SDS011;11709;52.420;10.538;2022-08-01T08:37:10;1.80;;;1.70;;
23082;SDS011;11709;52.420;10.538;2022-08-01T08:41:13;3.72;;;1.67;;
23082;SDS011;11709;52.420;10.538;2022-08-01T08:45:16;3.05;;;2.20;;
23082;SDS011;11709;52.420;10.538;2022-08-01T08:49:20;2.47;;;2.27;;
23082;SDS011;11709;52.420;10.538;2022-08-01T08:53:24;2.60;;;2.40;;
23082;SDS011;11709;52.420;10.538;2022-08-01T08:57:28;2.67;;;2.10;;
23082;SDS011;11709;52.420;10.538;2022-08-01T09:01:31;2.40;;;1.82;;
23082;SDS011;11709;52.420;10.538;2022-08-01T09:05:35;1.40;;;1.30;;
23082;SDS011;11709;52.420;10.538;2022-08-01T09:09:38;1.50;;;1.40;;
23082;SDS011;11709;52.420;10.538;2022-08-01T09:13:41;4.90;;;1.80;;
23082;SDS011;11709;52.420;10.538;2022-08-01T09:17:45;1.40;;;1.30;;
23082;SDS011;11709;52.420;10.538;2022-08-01T09:22:00;1.20;;;1.10;;
23082;SDS011;11709;52.420;10.538;2022-08-01T09:26:05;0.90;;;0.90;;
23082;SDS011;11709;52.420;10.538;2022-08-01T09:30:09;2.62;;;1.30;;
23082;SDS011;11709;52.420;10.538;2022-08-01T09:34:14;1.37;;;1.27;;
23082;SDS011;11709;52.420;10.538;2022-08-01T09:38:18;1.15;;;1.07;;
23082;SDS011;11709;52.420;10.538;2022-08-01T09:42:23;4.72;;;1.37;;
23082;SDS011;11709;52.420;10.538;2022-08-01T09:46:27;1.80;;;1.20;;
23082;SDS011;11709;52.420;10.538;2022-08-01T09:50:38;1.45;;;1.15;;
23082;SDS011;11709;52.420;10.538;2022-08-01T09:54:35;2.35;;;1.52;;
23082;SDS011;11709;52.420;10.538;2022-08-01T09:58:51;1.98;;;1.17;;
23082;SDS011;11709;52.420;10.538;2022-08-01T10:02:55;1.60;;;1.37;;
23082;SDS011;11709;52.420;10.538;2022-08-01T10:07:06;1.27;;;1.17;;
23082;SDS011;11709;52.420;10.538;2022-08-01T10:11:10;1.92;;;1.27;;
23082;SDS011;11709;52.420;10.538;2022-08-01T10:15:18;3.37;;;1.15;;
23082;SDS011;11709;52.420;10.538;2022-08-01T10:19:18;2.45;;;1.10;;
23082;SDS011;11709;52.420;10.538;2022-08-01T10:23:22;1.45;;;1.00;;
23082;SDS011;11709;52.420;10.538;2022-08-01T10:27:26;1.45;;;1.10;;
23082;SDS011;11709;52.420;10.538;2022-08-01T10:31:31;2.62;;;1.10;;
23082;SDS011;11709;52.420;10.538;2022-08-01T10:35:33;2.65;;;0.80;;
23082;SDS011;11709;52.420;10.538;2022-08-01T10:39:36;2.33;;;1.00;;
23082;SDS011;11709;52.420;10.538;2022-08-01T10:43:41;0.80;;;0.80;;
23082;SDS011;11709;52.420;10.538;2022-08-01T10:47:48;1.62;;;0.98;;
23082;SDS011;11709;52.420;10.538;2022-08-01T10:52:02;2.98;;;1.00;;
23082;SDS011;11709;52.420;10.538;2022-08-01T10:56:04;2.55;;;0.88;;
23082;SDS011;11709;52.420;10.538;2022-08-01T11:00:09;1.17;;;0.70;;
23082;SDS011;11709;52.420;10.538;2022-08-01T11:04:20;3.20;;;1.15;;
23082;SDS011;11709;52.420;10.538;2022-08-01T11:08:24;2.08;;;1.20;;
23082;SDS011;11709;52.420;10.538;2022-08-01T11:12:40;2.70;;;1.10;;
23082;SDS011;11709;52.420;10.538;2022-08-01T11:16:43;1.90;;;1.02;;
23082;SDS011;11709;52.420;10.538;2022-08-01T11:20:54;3.65;;;1.52;;
23082;SDS011;11709;52.420;10.538;2022-08-01T11:24:58;1.60;;;1.20;;
23082;SDS011;11709;52.420;10.538;2022-08-01T11:29:15;1.32;;;1.07;;
23082;SDS011;11709;52.420;10.538;2022-08-01T11:33:20;1.47;;;1.12;;
23082;SDS011;11709;52.420;10.538;2022-08-01T11:37:43;1.65;;;1.40;;
23082;SDS011;11709;52.420;10.538;2022-08-01T11:41:45;4.47;;;1.47;;
23082;SDS011;11709;52.420;10.538;2022-08-01T11:45:55;1.95;;;1.55;;
23082;SDS011;11709;52.420;10.538;2022-08-01T11:49:56;3.17;;;1.22;;
23082;SDS011;11709;52.420;10.538;2022-08-01T11:54:00;3.08;;;1.52;;
23082;SDS011;11709;52.420;10.538;2022-08-01T11:58:07;5.22;;;1.90;;
23082;SDS011;11709;52.420;10.538;2022-08-01T12:06:31;4.80;;;1.52;;
23082;SDS011;11709;52.420;10.538;2022-08-01T12:10:34;2.25;;;1.42;;
23082;SDS011;11709;52.420;10.538;2022-08-01T12:14:37;3.30;;;1.40;;
23082;SDS011;11709;52.420;10.538;2022-08-01T12:18:41;3.50;;;1.50;;
23082;SDS011;11709;52.420;10.538;2022-08-01T12:22:44;6.95;;;1.47;;
23082;SDS011;11709;52.420;10.538;2022-08-01T12:26:46;2.08;;;1.60;;
23082;SDS011;11709;52.420;10.538;2022-08-01T12:30:49;3.25;;;1.70;;
23082;SDS011;11709;52.420;10.538;2022-08-01T12:34:52;4.28;;;1.65;;
23082;SDS011;11709;52.420;10.538;2022-08-01T12:38:56;4.70;;;1.55;;
23082;SDS011;11709;52.420;10.538;2022-08-01T12:43:09;4.60;;;1.67;;
23082;SDS011;11709;52.420;10.538;2022-08-01T12:47:08;2.42;;;1.35;;
23082;SDS011;11709;52.420;10.538;2022-08-01T12:51:11;4.33;;;1.50;;
23082;SDS011;11709;52.420;10.538;2022-08-01T12:55:15;3.77;;;1.40;;
23082;SDS011;11709;52.420;10.538;2022-08-01T12:59:19;3.40;;;1.52;;
23082;SDS011;11709;52.420;10.538;2022-08-01T13:03:27;4.12;;;1.50;;
23082;SDS011;11709;52.420;10.538;2022-08-01T13:11:52;3.40;;;1.62;;
23082;SDS011;11709;52.420;10.538;2022-08-01T13:16:03;2.83;;;1.72;;
23082;SDS011;11709;52.420;10.538;2022-08-01T13:20:08;1.55;;;1.35;;
23082;SDS011;11709;52.420;10.538;2022-08-01T13:24:11;3.00;;;1.70;;
23082;SDS011;11709;52.420;10.538;2022-08-01T13:28:19;1.90;;;1.62;;
23082;SDS011;11709;52.420;10.538;2022-08-01T13:32:23;4.05;;;1.98;;
23082;SDS011;11709;52.420;10.538;2022-08-01T13:36:26;3.40;;;1.65;;
23082;SDS011;11709;52.420;10.538;2022-08-01T13:40:29;3.08;;;2.00;;
23082;SDS011;11709;52.420;10.538;2022-08-01T13:44:33;4.55;;;1.60;;
23082;SDS011;11709;52.420;10.538;2022-08-01T13:48:35;3.67;;;1.80;;
23082;SDS011;11709;52.420;10.538;2022-08-01T13:52:38;1.75;;;1.50;;
23082;SDS011;11709;52.420;10.538;2022-08-01T13:56:41;2.77;;;1.50;;
23082;SDS011;11709;52.420;10.538;2022-08-01T14:00:44;2.98;;;1.80;;
23082;SDS011;11709;52.420;10.538;2022-08-01T14:04:47;2.45;;;1.80;;
23082;SDS011;11709;52.420;10.538;2022-08-01T14:08:49;2.75;;;1.90;;
23082;SDS011;11709;52.420;10.538;2022-08-01T14:12:52;5.05;;;1.92;;
23082;SDS011;11709;52.420;10.538;2022-08-01T14:16:54;4.15;;;1.98;;
23082;SDS011;11709;52.420;10.538;2022-08-01T14:20:57;4.72;;;2.15;;
23082;SDS011;11709;52.420;10.538;2022-08-01T14:25:00;4.95;;;2.20;;
23082;SDS011;11709;52.420;10.538;2022-08-01T14:29:03;4.55;;;1.87;;
23082;SDS011;11709;52.420;10.538;2022-08-01T14:33:06;5.97;;;2.10;;
23082;SDS011;11709;52.420;10.538;2022-08-01T14:37:09;7.75;;;2.22;;
23082;SDS011;11709;52.420;10.538;2022-08-01T14:41:11;5.55;;;2.10;;
23082;SDS011;11709;52.420;10.538;2022-08-01T14:45:15;5.85;;;2.40;;
23082;SDS011;11709;52.420;10.538;2022-08-01T14:49:18;4.37;;;2.67;;
23082;SDS011;11709;52.420;10.538;2022-08-01T14:53:20;4.80;;;2.40;;
23082;SDS011;11709;52.420;10.538;2022-08-01T14:57:23;4.97;;;2.58;;
23082;SDS011;11709;52.420;10.538;2022-08-01T15:01:26;8.23;;;2.20;;
23082;SDS011;11709;52.420;10.538;2022-08-01T15:05:28;4.83;;;1.77;;
23082;SDS011;11709;52.420;10.538;2022-08-01T15:09:32;3.72;;;1.98;;
23082;SDS011;11709;52.420;10.538;2022-08-01T15:13:35;4.97;;;2.30;;
23082;SDS011;11709;52.420;10.538;2022-08-01T15:17:38;3.45;;;2.08;;
23082;SDS011;11709;52.420;10.538;2022-08-01T15:21:40;5.65;;;1.77;;
23082;SDS011;11709;52.420;10.538;2022-08-01T15:25:43;9.90;;;2.35;;
23082;SDS011;11709;52.420;10.538;2022-08-01T15:29:46;7.30;;;2.40;;
23082;SDS011;11709;52.420;10.538;2022-08-01T15:33:50;5.10;;;2.22;;
23082;SDS011;11709;52.420;10.538;2022-08-01T15:37:52;6.87;;;2.70;;
23082;SDS011;11709;52.420;10.538;2022-08-01T15:41:57;6.33;;;2.67;;
23082;SDS011;11709;52.420;10.538;2022-08-01T15:46:03;4.78;;;2.60;;
23082;SDS011;11709;52.420;10.538;2022-08-01T15:50:06;7.90;;;3.00;;
23082;SDS011;11709;52.420;10.538;2022-08-01T15:54:09;7.78;;;2.70;;
23082;SDS011;11709;52.420;10.538;2022-08-01T15:58:12;6.40;;;2.30;;
23082;SDS011;11709;52.420;10.538;2022-08-01T16:02:14;7.25;;;2.25;;
23082;SDS011;11709;52.420;10.538;2022-08-01T16:06:17;8.30;;;2.85;;
23082;SDS011;11709;52.420;10.538;2022-08-01T16:10:20;10.80;;;2.37;;
23082;SDS011;11709;52.420;10.538;2022-08-01T16:14:22;6.20;;;2.90;;
23082;SDS011;11709;52.420;10.538;2022-08-01T16:18:24;6.78;;;2.40;;
23082;SDS011;11709;52.420;10.538;2022-08-01T16:22:27;7.58;;;2.80;;
23082;SDS011;11709;52.420;10.538;2022-08-01T16:26:30;5.62;;;2.30;;
23082;SDS011;11709;52.420;10.538;2022-08-01T16:30:33;6.10;;;2.37;;
23082;SDS011;11709;52.420;10.538;2022-08-01T16:34:35;7.67;;;2.62;;
23082;SDS011;11709;52.420;10.538;2022-08-01T16:38:38;7.87;;;2.42;;
23082;SDS011;11709;52.420;10.538;2022-08-01T16:42:41;8.40;;;2.15;;
23082;SDS011;11709;52.420;10.538;2022-08-01T16:46:43;6.08;;;2.30;;
23082;SDS011;11709;52.420;10.538;2022-08-01T16:50:46;6.62;;;2.40;;
23082;SDS011;11709;52.420;10.538;2022-08-01T16:54:50;6.33;;;2.12;;
23082;SDS011;11709;52.420;10.538;2022-08-01T16:58:52;8.40;;;1.90;;
23082;SDS011;11709;52.420;10.538;2022-08-01T17:02:55;8.75;;;2.30;;
23082;SDS011;11709;52.420;10.538;2022-08-01T17:06:58;9.63;;;2.30;;
23082;SDS011;11709;52.420;10.538;2022-08-01T17:11:01;4.90;;;2.02;;
23082;SDS011;11709;52.420;10.538;2022-08-01T17:15:04;7.87;;;1.98;;
23082;SDS011;11709;52.420;10.538;2022-08-01T17:19:07;7.08;;;1.98;;
23082;SDS011;11709;52.420;10.538;2022-08-01T17:23:10;6.55;;;1.80;;
23082;SDS011;11709;52.420;10.538;2022-08-01T17:27:12;9.43;;;2.67;;
23082;SDS011;11709;52.420;10.538;2022-08-01T17:31:15;4.72;;;2.00;;
23082;SDS011;11709;52.420;10.538;2022-08-01T17:35:17;7.62;;;2.00;;
23082;SDS011;11709;52.420;10.538;2022-08-01T17:39:20;6.53;;;2.05;;
23082;SDS011;11709;52.420;10.538;2022-08-01T17:43:23;5.05;;;1.90;;
23082;SDS011;11709;52.420;10.538;2022-08-01T17:47:25;6.55;;;1.70;;
23082;SDS011;11709;52.420;10.538;2022-08-01T17:51:28;7.40;;;2.05;;
23082;SDS011;11709;52.420;10.538;2022-08-01T17:55:30;6.03;;;1.70;;
23082;SDS011;11709;52.420;10.538;2022-08-01T17:59:33;5.53;;;1.85;;
23082;SDS011;11709;52.420;10.538;2022-08-01T18:03:36;6.00;;;1.90;;
23082;SDS011;11709;52.420;10.538;2022-08-01T18:07:38;5.12;;;1.60;;
23082;SDS011;11709;52.420;10.538;2022-08-01T18:11:41;5.15;;;1.87;;
23082;SDS011;11709;52.420;10.538;2022-08-01T18:15:43;5.25;;;1.75;;
23082;SDS011;11709;52.420;10.538;2022-08-01T18:19:46;5.00;;;2.00;;
23082;SDS011;11709;52.420;10.538;2022-08-01T18:23:48;8.88;;;1.87;;
23082;SDS011;11709;52.420;10.538;2022-08-01T18:27:51;5.47;;;1.55;;
23082;SDS011;11709;52.420;10.538;2022-08-01T18:31:54;5.70;;;1.62;;
23082;SDS011;11709;52.420;10.538;2022-08-01T18:35:58;5.62;;;1.70;;
23082;SDS011;11709;52.420;10.538;2022-08-01T18:40:01;10.30;;;2.00;;
23082;SDS011;11709;52.420;10.538;2022-08-01T18:44:05;4.70;;;1.95;;
23082;SDS011;11709;52.420;10.538;2022-08-01T18:48:08;6.78;;;1.77;;
23082;SDS011;11709;52.420;10.538;2022-08-01T18:52:11;5.83;;;1.87;;
23082;SDS011;11709;52.420;10.538;2022-08-01T18:56:14;10.58;;;2.25;;
23082;SDS011;11709;52.420;10.538;2022-08-01T19:00:17;8.45;;;2.02;;
23082;SDS011;11709;52.420;10.538;2022-08-01T19:04:19;4.72;;;1.82;;
23082;SDS011;11709;52.420;10.538;2022-08-01T19:08:22;10.75;;;2.30;;
23082;SDS011;11709;52.420;10.538;2022-08-01T19:12:24;4.62;;;1.90;;
23082;SDS011;11709;52.420;10.538;2022-08-01T19:16:27;7.35;;;1.90;;
23082;SDS011;11709;52.420;10.538;2022-08-01T19:20:30;12.98;;;2.30;;
23082;SDS011;11709;52.420;10.538;2022-08-01T19:24:32;6.70;;;2.42;;
23082;SDS011;11709;52.420;10.538;2022-08-01T19:28:38;4.75;;;2.10;;
23082;SDS011;11709;52.420;10.538;2022-08-01T19:32:45;7.72;;;2.17;;
23082;SDS011;11709;52.420;10.538;2022-08-01T19:36:49;9.08;;;2.20;;
23082;SDS011;11709;52.420;10.538;2022-08-01T19:40:53;7.42;;;2.35;;
23082;SDS011;11709;52.420;10.538;2022-08-01T19:44:56;7.70;;;1.90;;
23082;SDS011;11709;52.420;10.538;2022-08-01T19:48:59;5.97;;;2.27;;
23082;SDS011;11709;52.420;10.538;2022-08-01T19:53:01;7.95;;;2.00;;
23082;SDS011;11709;52.420;10.538;2022-08-01T19:57:05;10.88;;;2.33;;
23082;SDS011;11709;52.420;10.538;2022-08-01T20:01:11;7.65;;;1.92;;
23082;SDS011;11709;52.420;10.538;2022-08-01T20:05:15;10.58;;;2.15;;
23082;SDS011;11709;52.420;10.538;2022-08-01T20:09:17;7.17;;;2.20;;
23082;SDS011;11709;52.420;10.538;2022-08-01T20:13:20;5.62;;;2.20;;
23082;SDS011;11709;52.420;10.538;2022-08-01T20:17:23;7.97;;;2.45;;
23082;SDS011;11709;52.420;10.538;2022-08-01T20:21:26;6.70;;;2.40;;
23082;SDS011;11709;52.420;10.538;2022-08-01T20:25:29;7.55;;;2.22;;
23082;SDS011;11709;52.420;10.538;2022-08-01T20:29:34;4.25;;;2.10;;
23082;SDS011;11709;52.420;10.538;2022-08-01T20:33:41;10.53;;;2.52;;
23082;SDS011;11709;52.420;10.538;2022-08-01T20:37:46;5.12;;;2.20;;
23082;SDS011;11709;52.420;10.538;2022-08-01T20:41:54;12.28;;;2.90;;
23082;SDS011;11709;52.420;10.538;2022-08-01T20:45:53;8.13;;;2.22;;
23082;SDS011;11709;52.420;10.538;2022-08-01T20:49:57;9.43;;;3.00;;
23082;SDS011;11709;52.420;10.538;2022-08-01T20:54:01;10.98;;;2.33;;
23082;SDS011;11709;52.420;10.538;2022-08-01T20:58:04;7.87;;;2.05;;
23082;SDS011;11709;52.420;10.538;2022-08-01T21:06:20;9.73;;;2.22;;
23082;SDS011;11709;52.420;10.538;2022-08-01T21:10:26;5.97;;;2.20;;
23082;SDS011;11709;52.420;10.538;2022-08-01T21:14:38;9.38;;;2.67;;
23082;SDS011;11709;52.420;10.538;2022-08-01T21:18:54;6.53;;;2.42;;
23082;SDS011;11709;52.420;10.538;2022-08-01T21:23:02;6.95;;;2.87;;
23082;SDS011;11709;52.420;10.538;2022-08-01T21:27:17;7.05;;;2.70;;
23082;SDS011;11709;52.420;10.538;2022-08-01T21:31:23;7.90;;;2.55;;
23082;SDS011;11709;52.420;10.538;2022-08-01T21:35:26;6.78;;;2.45;;
23082;SDS011;11709;52.420;10.538;2022-08-01T21:39:29;5.47;;;2.85;;
23082;SDS011;11709;52.420;10.538;2022-08-01T21:43:32;5.12;;;2.25;;
23082;SDS011;11709;52.420;10.538;2022-08-01T21:47:35;9.13;;;2.85;;
23082;SDS011;11709;52.420;10.538;2022-08-01T21:51:50;6.95;;;2.70;;
23082;SDS011;11709;52.420;10.538;2022-08-01T22:00:22;11.80;;;2.45;;
23082;SDS011;11709;52.420;10.538;2022-08-01T22:08:41;5.42;;;2.67;;
23082;SDS011;11709;52.420;10.538;2022-08-01T22:12:56;8.43;;;3.50;;
23082;SDS011;11709;52.420;10.538;2022-08-01T22:16:59;9.20;;;2.80;;
23082;SDS011;11709;52.420;10.538;2022-08-01T22:21:02;8.55;;;2.92;;
23082;SDS011;11709;52.420;10.538;2022-08-01T22:25:05;7.87;;;3.08;;
23082;SDS011;11709;52.420;10.538;2022-08-01T22:29:08;8.38;;;2.60;;
23082;SDS011;11709;52.420;10.538;2022-08-01T22:33:11;9.10;;;2.85;;
23082;SDS011;11709;52.420;10.538;2022-08-01T22:37:13;8.45;;;2.80;;
23082;SDS011;11709;52.420;10.538;2022-08-01T22:41:17;10.88;;;2.77;;
23082;SDS011;11709;52.420;10.538;2022-08-01T22:45:24;6.95;;;2.37;;
23082;SDS011;11709;52.420;10.538;2022-08-01T22:49:41;7.33;;;3.00;;
23082;SDS011;11709;52.420;10.538;2022-08-01T22:58:02;7.12;;;2.98;;
23082;SDS011;11709;52.420;10.538;2022-08-01T23:02:05;9.28;;;3.40;;
23082;SDS011;11709;52.420;10.538;2022-08-01T23:06:11;6.15;;;3.05;;
23082;SDS011;11709;52.420;10.538;2022-08-01T23:10:27;5.62;;;3.58;;
23082;SDS011;11709;52.420;10.538;2022-08-01T23:14:31;10.80;;;3.33;;
23082;SDS011;11709;52.420;10.538;2022-08-01T23:18:34;15.38;;;3.58;;
23082;SDS011;11709;52.420;10.538;2022-08-01T23:22:38;9.93;;;3.47;;
23082;SDS011;11709;52.420;10.538;2022-08-01T23:26:42;6.42;;;2.67;;
23082;SDS011;11709;52.420;10.538;2022-08-01T23:30:46;5.35;;;2.77;;
23082;SDS011;11709;52.420;10.538;2022-08-01T23:34:49;9.60;;;3.20;;
23082;SDS011;11709;52.420;10.538;2022-08-01T23:38:52;6.62;;;2.95;;
23082;SDS011;11709;52.420;10.538;2022-08-01T23:42:55;6.85;;;2.90;;
23082;SDS011;11709;52.420;10.538;2022-08-01T23:46:57;8.45;;;2.65;;
23082;SDS011;11709;52.420;10.538;2022-08-01T23:51:00;7.40;;;2.95;;
23082;SDS011;11709;52.420;10.538;2022-08-01T23:55:03;12.43;;;3.67;;
23082;SDS011;11709;52.420;10.538;2022-08-01T23:59:07;6.85;;;2.87;;
